createdAt,value
2016-09-13T00:00:24.502Z,67.72
2016-09-13T00:01:24.486Z,67.91
2016-09-13T00:02:24.481Z,68.08
2016-09-13T00:03:24.469Z,67.98
2016-09-13T00:04:24.449Z,68.08
2016-09-13T00:05:24.432Z,68.01
2016-09-13T00:06:24.418Z,67.88
2016-09-13T00:07:24.407Z,67.91
2016-09-13T00:08:24.388Z,67.98
2016-09-13T00:09:24.066Z,67.98
2016-09-13T00:10:24.361Z,67.82
2016-09-13T00:11:24.346Z,68.08
2016-09-13T00:12:24.332Z,68.21
2016-09-13T00:13:24.320Z,68.37
2016-09-13T00:14:24.305Z,68.01
2016-09-13T00:15:24.291Z,68.08
2016-09-13T00:16:24.276Z,68.37
2016-09-13T00:17:24.259Z,67.88
2016-09-13T00:18:24.252Z,67.79
2016-09-13T00:19:24.232Z,67.69
2016-09-13T00:20:24.214Z,67.88
2016-09-13T00:21:24.201Z,67.88
2016-09-13T00:22:24.186Z,67.91
2016-09-13T00:23:24.178Z,67.88
2016-09-13T00:24:23.843Z,67.72
2016-09-13T00:25:23.827Z,67.69
2016-09-13T00:26:24.129Z,67.69
2016-09-13T00:27:24.116Z,67.69
2016-09-13T00:28:24.098Z,67.69
2016-09-13T00:29:23.771Z,67.98
2016-09-13T00:30:24.069Z,67.59
2016-09-13T00:31:24.059Z,67.88
2016-09-13T00:32:23.740Z,67.59
2016-09-13T00:33:24.028Z,67.59
2016-09-13T00:34:24.010Z,67.4
2016-09-13T00:35:23.687Z,67.49
2016-09-13T00:36:23.989Z,67.3
2016-09-13T00:37:23.969Z,67.3
2016-09-13T00:38:23.958Z,67.11
2016-09-13T00:39:23.942Z,67.01
2016-09-13T00:40:23.922Z,67.3
2016-09-13T00:41:23.601Z,67.3
2016-09-13T00:42:23.898Z,67.3
2016-09-13T00:43:23.889Z,67.4
2016-09-13T00:44:23.872Z,67.4
2016-09-13T00:45:23.846Z,67.21
2016-09-13T00:46:23.844Z,67.24
2016-09-13T00:47:23.826Z,67.3
2016-09-13T00:48:23.813Z,67.3
2016-09-13T00:49:23.801Z,67.3
2016-09-13T00:50:23.783Z,67.21
2016-09-13T00:51:23.769Z,66.72
2016-09-13T00:52:23.754Z,67.4
2016-09-13T00:53:23.740Z,67.21
2016-09-13T00:54:23.725Z,67.49
2016-09-13T00:55:23.721Z,67.49
2016-09-13T00:56:23.693Z,67.4
2016-09-13T00:57:23.680Z,67.11
2016-09-13T00:58:23.352Z,67.01
2016-09-13T00:59:23.648Z,67.4
2016-09-13T01:00:23.635Z,67.01
2016-09-13T01:01:23.623Z,67.11
2016-09-13T01:02:23.618Z,67.11
2016-09-13T01:03:23.592Z,67.4
2016-09-13T01:04:23.579Z,67.3
2016-09-13T01:05:23.561Z,67.49
2016-09-13T01:06:23.238Z,67.21
2016-09-13T01:07:23.543Z,67.21
2016-09-13T01:08:23.522Z,67.4
2016-09-13T01:09:23.509Z,66.91
2016-09-13T01:10:23.487Z,67.01
2016-09-13T01:11:23.487Z,67.01
2016-09-13T01:12:23.470Z,66.63
2016-09-13T01:13:23.449Z,66.91
2016-09-13T01:14:23.437Z,66.53
2016-09-13T01:15:23.419Z,66.91
2016-09-13T01:16:23.405Z,66.82
2016-09-13T01:17:23.080Z,66.72
2016-09-13T01:18:23.376Z,66.72
2016-09-13T01:19:23.364Z,66.72
2016-09-13T01:20:23.343Z,66.85
2016-09-13T01:21:23.341Z,66.53
2016-09-13T01:22:23.321Z,66.82
2016-09-13T01:23:23.304Z,66.72
2016-09-13T01:24:23.288Z,66.82
2016-09-13T01:25:23.274Z,66.72
2016-09-13T01:26:23.261Z,66.91
2016-09-13T01:27:23.247Z,66.82
2016-09-13T01:28:23.232Z,67.01
2016-09-13T01:29:23.218Z,67.01
2016-09-13T01:30:22.885Z,66.82
2016-09-13T01:31:22.871Z,67.01
2016-09-13T01:32:23.174Z,66.91
2016-09-13T01:33:23.161Z,67.11
2016-09-13T01:34:23.147Z,67.01
2016-09-13T01:35:23.129Z,66.91
2016-09-13T01:36:23.125Z,67.11
2016-09-13T01:37:23.109Z,67.21
2016-09-13T01:38:23.095Z,67.11
2016-09-13T01:39:23.083Z,67.21
2016-09-13T01:40:23.054Z,67.11
2016-09-13T01:41:23.052Z,67.21
2016-09-13T01:42:22.717Z,67.11
2016-09-13T01:43:23.031Z,67.21
2016-09-13T01:44:23.001Z,66.82
2016-09-13T01:45:22.669Z,66.82
2016-09-13T01:46:22.976Z,67.21
2016-09-13T01:47:22.959Z,66.91
2016-09-13T01:48:22.946Z,66.82
2016-09-13T01:49:22.930Z,66.72
2016-09-13T01:50:22.922Z,67.01
2016-09-13T01:51:22.907Z,67.3
2016-09-13T01:52:22.571Z,66.82
2016-09-13T01:53:22.873Z,66.82
2016-09-13T01:54:22.540Z,66.91
2016-09-13T01:55:22.839Z,66.63
2016-09-13T01:56:22.516Z,66.72
2016-09-13T01:57:22.810Z,66.72
2016-09-13T01:58:22.796Z,66.63
2016-09-13T01:59:22.785Z,67.01
2016-09-13T02:00:22.772Z,66.72
2016-09-13T02:01:22.756Z,66.91
2016-09-13T02:02:22.418Z,66.82
2016-09-13T02:03:22.724Z,66.82
2016-09-13T02:04:22.707Z,66.82
2016-09-13T02:05:22.701Z,66.82
2016-09-13T02:06:22.690Z,66.63
2016-09-13T02:07:22.677Z,66.82
2016-09-13T02:08:22.653Z,66.82
2016-09-13T02:09:22.638Z,66.82
2016-09-13T02:10:22.621Z,66.72
2016-09-13T02:11:22.615Z,66.53
2016-09-13T02:12:22.598Z,66.63
2016-09-13T02:13:22.577Z,66.72
2016-09-13T02:14:22.570Z,66.63
2016-09-13T02:15:22.556Z,66.91
2016-09-13T02:16:22.537Z,66.82
2016-09-13T02:17:22.527Z,66.63
2016-09-13T02:18:22.505Z,66.82
2016-09-13T02:19:22.498Z,66.63
2016-09-13T02:20:22.479Z,66.72
2016-09-13T02:21:22.464Z,66.82
2016-09-13T02:22:22.449Z,67.21
2016-09-13T02:23:22.446Z,66.91
2016-09-13T02:24:22.108Z,67.01
2016-09-13T02:25:22.093Z,66.82
2016-09-13T02:26:22.396Z,66.91
2016-09-13T02:27:22.062Z,67.3
2016-09-13T02:28:22.365Z,66.82
2016-09-13T02:29:22.348Z,67.01
2016-09-13T02:30:22.332Z,67.01
2016-09-13T02:31:22.321Z,66.82
2016-09-13T02:32:22.325Z,66.91
2016-09-13T02:33:22.287Z,67.11
2016-09-13T02:34:22.274Z,67.01
2016-09-13T02:35:21.958Z,66.72
2016-09-13T02:36:22.245Z,66.72
2016-09-13T02:37:22.230Z,66.91
2016-09-13T02:38:22.213Z,67.01
2016-09-13T02:39:21.886Z,67.01
2016-09-13T02:40:22.195Z,66.91
2016-09-13T02:41:22.167Z,67.01
2016-09-13T02:42:22.156Z,67.11
2016-09-13T02:43:21.831Z,66.91
2016-09-13T02:44:22.126Z,67.11
2016-09-13T02:45:21.804Z,66.63
2016-09-13T02:46:22.097Z,66.53
2016-09-13T02:47:22.086Z,66.72
2016-09-13T02:48:22.079Z,66.63
2016-09-13T02:49:22.051Z,66.63
2016-09-13T02:50:22.042Z,66.82
2016-09-13T02:51:21.715Z,66.72
2016-09-13T02:52:22.015Z,66.53
2016-09-13T02:53:22.005Z,66.43
2016-09-13T02:54:21.986Z,66.24
2016-09-13T02:55:21.970Z,66.14
2016-09-13T02:56:21.640Z,66.14
2016-09-13T02:57:21.942Z,66.63
2016-09-13T02:58:21.929Z,66.63
2016-09-13T02:59:21.913Z,66.53
2016-09-13T03:00:21.900Z,66.72
2016-09-13T03:01:21.883Z,66.63
2016-09-13T03:02:21.558Z,66.72
2016-09-13T03:03:21.856Z,66.82
2016-09-13T03:04:21.840Z,66.63
2016-09-13T03:05:21.822Z,66.63
2016-09-13T03:06:21.811Z,66.72
2016-09-13T03:07:21.796Z,66.53
2016-09-13T03:08:21.467Z,66.63
2016-09-13T03:09:21.768Z,66.72
2016-09-13T03:10:21.754Z,66.53
2016-09-13T03:11:21.732Z,66.33
2016-09-13T03:12:21.725Z,66.14
2016-09-13T03:13:21.707Z,66.33
2016-09-13T03:14:21.376Z,66.63
2016-09-13T03:15:21.680Z,66.24
2016-09-13T03:16:21.347Z,66.33
2016-09-13T03:17:21.650Z,66.53
2016-09-13T03:18:21.639Z,66.05
2016-09-13T03:19:21.306Z,66.33
2016-09-13T03:20:21.296Z,66.33
2016-09-13T03:21:21.591Z,66.24
2016-09-13T03:22:21.654Z,66.53
2016-09-13T03:23:21.571Z,66.05
2016-09-13T03:24:21.548Z,66.24
2016-09-13T03:25:21.542Z,66.05
2016-09-13T03:26:21.521Z,66.14
2016-09-13T03:27:21.197Z,66.05
2016-09-13T03:28:21.496Z,66.14
2016-09-13T03:29:21.475Z,66.24
2016-09-13T03:30:21.460Z,66.33
2016-09-13T03:31:21.455Z,66.33
2016-09-13T03:32:21.122Z,66.33
2016-09-13T03:33:21.419Z,66.24
2016-09-13T03:34:21.410Z,66.33
2016-09-13T03:35:21.386Z,66.43
2016-09-13T03:36:21.373Z,66.24
2016-09-13T03:37:21.048Z,66.43
2016-09-13T03:38:21.350Z,66.2
2016-09-13T03:39:21.341Z,66.5
2016-09-13T03:40:21.314Z,66.01
2016-09-13T03:41:20.991Z,66.2
2016-09-13T03:42:21.286Z,66.5
2016-09-13T03:43:20.955Z,66.3
2016-09-13T03:44:20.939Z,66.11
2016-09-13T03:45:21.292Z,66.24
2016-09-13T03:46:21.229Z,66.43
2016-09-13T03:47:21.218Z,66.4
2016-09-13T03:48:21.195Z,66.33
2016-09-13T03:49:21.183Z,66.53
2016-09-13T03:50:21.175Z,66.33
2016-09-13T03:51:20.842Z,66.14
2016-09-13T03:52:21.139Z,65.66
2016-09-13T03:53:21.124Z,65.82
2016-09-13T03:54:21.107Z,65.56
2016-09-13T03:55:21.093Z,65.56
2016-09-13T03:56:21.082Z,65.72
2016-09-13T03:57:21.068Z,65.53
2016-09-13T03:58:20.736Z,65.75
2016-09-13T03:59:21.038Z,66.05
2016-09-13T04:00:21.033Z,65.56
2016-09-13T04:01:20.699Z,65.75
2016-09-13T04:02:20.993Z,66.05
2016-09-13T04:03:20.980Z,65.53
2016-09-13T04:04:20.657Z,65.85
2016-09-13T04:05:20.949Z,65.85
2016-09-13T04:06:20.621Z,65.56
2016-09-13T04:07:20.923Z,65.92
2016-09-13T04:08:20.914Z,65.56
2016-09-13T04:09:20.889Z,65.66
2016-09-13T04:10:20.568Z,65.43
2016-09-13T04:11:20.860Z,65.56
2016-09-13T04:12:20.849Z,65.82
2016-09-13T04:13:20.831Z,65.72
2016-09-13T04:14:20.820Z,65.63
2016-09-13T04:15:20.487Z,65.43
2016-09-13T04:16:20.789Z,65.63
2016-09-13T04:17:20.457Z,65.82
2016-09-13T04:18:20.766Z,65.53
2016-09-13T04:19:20.431Z,65.72
2016-09-13T04:20:20.736Z,65.63
2016-09-13T04:21:20.716Z,65.63
2016-09-13T04:22:20.705Z,65.53
2016-09-13T04:23:20.374Z,65.92
2016-09-13T04:24:20.675Z,65.72
2016-09-13T04:25:20.657Z,66.01
2016-09-13T04:26:20.644Z,65.92
2016-09-13T04:27:20.627Z,65.53
2016-09-13T04:28:20.616Z,65.53
2016-09-13T04:29:20.597Z,65.53
2016-09-13T04:30:20.585Z,65.43
2016-09-13T04:31:20.569Z,65.72
2016-09-13T04:32:20.556Z,65.72
2016-09-13T04:33:20.539Z,65.63
2016-09-13T04:34:20.526Z,65.63
2016-09-13T04:35:20.195Z,65.43
2016-09-13T04:36:20.493Z,65.34
2016-09-13T04:37:20.480Z,65.75
2016-09-13T04:38:20.473Z,65.72
2016-09-13T04:39:20.137Z,65.34
2016-09-13T04:40:20.440Z,65.53
2016-09-13T04:41:20.465Z,65.53
2016-09-13T04:42:20.405Z,65.82
2016-09-13T04:43:20.394Z,65.43
2016-09-13T04:44:20.376Z,65.43
2016-09-13T04:45:20.365Z,65.34
2016-09-13T04:46:20.340Z,65.82
2016-09-13T04:47:20.332Z,65.72
2016-09-13T04:48:20.321Z,65.34
2016-09-13T04:49:19.985Z,65.34
2016-09-13T04:50:19.975Z,65.43
2016-09-13T04:51:19.955Z,66.01
2016-09-13T04:52:20.258Z,65.24
2016-09-13T04:53:20.250Z,65.34
2016-09-13T04:54:20.227Z,65.43
2016-09-13T04:55:20.213Z,65.34
2016-09-13T04:56:20.200Z,65.53
2016-09-13T04:57:20.179Z,65.92
2016-09-13T04:58:20.167Z,66.01
2016-09-13T04:59:20.163Z,65.53
2016-09-13T05:00:20.138Z,65.43
2016-09-13T05:01:20.127Z,65.72
2016-09-13T05:02:20.114Z,65.92
2016-09-13T05:03:20.095Z,65.63
2016-09-13T05:04:20.079Z,65.34
2016-09-13T05:05:20.072Z,65.72
2016-09-13T05:06:20.060Z,65.72
2016-09-13T05:07:19.718Z,65.92
2016-09-13T05:08:20.018Z,65.14
2016-09-13T05:09:20.006Z,65.72
2016-09-13T05:10:19.993Z,65.72
2016-09-13T05:11:19.987Z,65.43
2016-09-13T05:12:19.964Z,65.82
2016-09-13T05:13:19.940Z,65.34
2016-09-13T05:14:19.931Z,66.11
2016-09-13T05:15:19.915Z,65.82
2016-09-13T05:16:19.913Z,65.53
2016-09-13T05:17:19.892Z,65.92
2016-09-13T05:18:19.872Z,65.72
2016-09-13T05:19:19.861Z,65.63
2016-09-13T05:20:19.845Z,65.53
2016-09-13T05:21:19.832Z,65.72
2016-09-13T05:22:19.813Z,65.63
2016-09-13T05:23:19.802Z,65.72
2016-09-13T05:24:19.788Z,66.5
2016-09-13T05:25:19.773Z,66.01
2016-09-13T05:26:19.754Z,65.72
2016-09-13T05:27:19.741Z,65.72
2016-09-13T05:28:19.729Z,66.3
2016-09-13T05:29:19.711Z,66.4
2016-09-13T05:30:19.698Z,66.4
2016-09-13T05:31:19.679Z,66.17
2016-09-13T05:32:19.666Z,66.01
2016-09-13T05:33:19.338Z,66.27
2016-09-13T05:34:19.641Z,66.01
2016-09-13T05:35:19.620Z,65.82
2016-09-13T05:36:19.606Z,65.63
2016-09-13T05:37:19.278Z,65.72
2016-09-13T05:38:19.577Z,65.53
2016-09-13T05:39:19.566Z,65.72
2016-09-13T05:40:19.232Z,65.53
2016-09-13T05:41:19.220Z,65.63
2016-09-13T05:42:19.216Z,65.82
2016-09-13T05:43:19.504Z,65.72
2016-09-13T05:44:19.172Z,65.72
2016-09-13T05:45:19.161Z,66.01
2016-09-13T05:46:19.146Z,65.82
2016-09-13T05:47:19.442Z,65.53
2016-09-13T05:48:19.113Z,66.01
2016-09-13T05:49:19.416Z,65.92
2016-09-13T05:50:19.401Z,65.72
2016-09-13T05:51:19.391Z,65.53
2016-09-13T05:52:19.367Z,65.82
2016-09-13T05:53:19.358Z,65.72
2016-09-13T05:54:19.344Z,65.72
2016-09-13T05:55:19.324Z,65.72
2016-09-13T05:56:19.310Z,65.72
2016-09-13T05:57:19.296Z,65.72
2016-09-13T05:58:19.283Z,65.63
2016-09-13T05:59:19.275Z,65.72
2016-09-13T06:00:19.252Z,65.72
2016-09-13T06:01:19.241Z,66.11
2016-09-13T06:02:19.218Z,66.3
2016-09-13T06:03:19.209Z,65.92
2016-09-13T06:04:19.202Z,65.92
2016-09-13T06:05:19.184Z,65.82
2016-09-13T06:06:19.165Z,66.2
2016-09-13T06:07:19.149Z,66.2
2016-09-13T06:08:19.136Z,66.4
2016-09-13T06:09:19.118Z,66.2
2016-09-13T06:10:19.108Z,66.4
2016-09-13T06:11:19.088Z,66.3
2016-09-13T06:12:19.077Z,66.4
2016-09-13T06:13:19.059Z,66.2
2016-09-13T06:14:19.056Z,66.3
2016-09-13T06:15:19.031Z,66.4
2016-09-13T06:16:18.699Z,66.4
2016-09-13T06:17:19.000Z,66.3
2016-09-13T06:18:18.671Z,66.3
2016-09-13T06:19:18.967Z,66.2
2016-09-13T06:20:18.959Z,66.11
2016-09-13T06:21:18.939Z,66.2
2016-09-13T06:22:18.926Z,66.2
2016-09-13T06:23:18.597Z,66.4
2016-09-13T06:24:18.902Z,66.11
2016-09-13T06:25:18.880Z,66.11
2016-09-13T06:26:18.865Z,66.01
2016-09-13T06:27:18.534Z,66.3
2016-09-13T06:28:18.527Z,66.01
2016-09-13T06:29:18.824Z,66.01
2016-09-13T06:30:18.812Z,66.11
2016-09-13T06:31:18.793Z,66.01
2016-09-13T06:32:18.781Z,66.11
2016-09-13T06:33:18.769Z,66.11
2016-09-13T06:34:18.747Z,66.11
2016-09-13T06:35:18.420Z,66.11
2016-09-13T06:36:18.407Z,66.5
2016-09-13T06:37:18.708Z,65.95
2016-09-13T06:38:18.694Z,66.11
2016-09-13T06:39:18.679Z,66.14
2016-09-13T06:40:18.664Z,66.2
2016-09-13T06:41:18.333Z,66.05
2016-09-13T06:42:18.634Z,66.11
2016-09-13T06:43:18.616Z,66.4
2016-09-13T06:44:18.603Z,66.53
2016-09-13T06:45:18.586Z,66.01
2016-09-13T06:46:18.576Z,66.4
2016-09-13T06:47:18.558Z,66.5
2016-09-13T06:48:18.544Z,66.69
2016-09-13T06:49:18.526Z,66.24
2016-09-13T06:50:18.520Z,66.72
2016-09-13T06:51:18.499Z,66.33
2016-09-13T06:52:18.486Z,66.14
2016-09-13T06:53:18.466Z,65.95
2016-09-13T06:54:18.466Z,66.53
2016-09-13T06:55:18.437Z,66.63
2016-09-13T06:56:18.437Z,66.82
2016-09-13T06:57:18.413Z,66.82
2016-09-13T06:58:18.399Z,66.24
2016-09-13T06:59:18.380Z,66.33
2016-09-13T07:00:18.367Z,66.33
2016-09-13T07:01:18.350Z,65.75
2016-09-13T07:02:18.336Z,65.08
2016-09-13T07:03:18.340Z,65.56
2016-09-13T07:04:18.309Z,66.05
2016-09-13T07:05:18.294Z,65.08
2016-09-13T07:06:18.282Z,66.05
2016-09-13T07:07:18.266Z,65.47
2016-09-13T07:08:18.250Z,65.66
2016-09-13T07:09:18.238Z,65.75
2016-09-13T07:10:17.905Z,66.43
2016-09-13T07:11:18.216Z,66.43
2016-09-13T07:12:18.196Z,66.05
2016-09-13T07:13:18.175Z,66.53
2016-09-13T07:14:17.851Z,66.05
2016-09-13T07:15:18.147Z,65.95
2016-09-13T07:16:18.136Z,66.14
2016-09-13T07:17:17.803Z,66.24
2016-09-13T07:18:17.795Z,66.53
2016-09-13T07:19:18.092Z,66.05
2016-09-13T07:20:17.752Z,66.43
2016-09-13T07:21:18.066Z,66.24
2016-09-13T07:22:17.732Z,66.33
2016-09-13T07:23:17.723Z,66.63
2016-09-13T07:24:18.013Z,66.14
2016-09-13T07:25:18.001Z,66.24
2016-09-13T07:26:17.986Z,66.43
2016-09-13T07:27:17.986Z,66.53
2016-09-13T07:28:17.966Z,66.43
2016-09-13T07:29:17.943Z,66.05
2016-09-13T07:30:17.928Z,66.14
2016-09-13T07:31:17.919Z,66.33
2016-09-13T07:32:17.584Z,66.14
2016-09-13T07:33:17.897Z,65.95
2016-09-13T07:34:17.874Z,66.33
2016-09-13T07:35:17.863Z,66.33
2016-09-13T07:36:17.842Z,66.14
2016-09-13T07:37:17.831Z,66.53
2016-09-13T07:38:17.819Z,66.43
2016-09-13T07:39:17.802Z,66.43
2016-09-13T07:40:17.783Z,66.53
2016-09-13T07:41:17.455Z,66.14
2016-09-13T07:42:17.746Z,66.43
2016-09-13T07:43:17.744Z,66.53
2016-09-13T07:44:17.733Z,66.56
2016-09-13T07:45:17.710Z,66.43
2016-09-13T07:46:17.380Z,66.27
2016-09-13T07:47:17.683Z,66.43
2016-09-13T07:48:17.666Z,66.24
2016-09-13T07:49:17.651Z,66.47
2016-09-13T07:50:17.633Z,66.47
2016-09-13T07:51:17.618Z,66.37
2016-09-13T07:52:17.627Z,66.43
2016-09-13T07:53:17.589Z,66.17
2016-09-13T07:54:17.585Z,66.33
2016-09-13T07:55:17.566Z,66.72
2016-09-13T08:12:21.486Z,67.72
2016-09-13T08:13:21.471Z,67.63
2016-09-13T08:14:21.456Z,67.82
2016-09-13T08:15:21.441Z,67.82
2016-09-13T08:16:21.431Z,67.82
2016-09-13T08:17:21.409Z,67.33
2016-09-13T08:18:21.393Z,67.63
2016-09-13T08:19:21.070Z,67.33
2016-09-13T08:20:21.369Z,67.72
2016-09-13T08:21:21.352Z,68.01
2016-09-13T08:25:35.910Z,67.24
2016-09-13T08:26:35.245Z,67.53
2016-09-13T08:27:35.223Z,67.24
2016-09-13T08:28:35.213Z,67.33
2016-09-13T08:29:35.191Z,67.63
2016-09-13T08:30:34.870Z,67.43
2016-09-13T08:31:35.167Z,67.05
2016-09-13T08:32:35.149Z,67.53
2016-09-13T08:33:35.135Z,67.24
2016-09-13T08:34:35.123Z,67.05
2016-09-13T08:35:35.110Z,67.05
2016-09-13T08:36:35.095Z,67.33
2016-09-13T08:37:35.092Z,67.33
2016-09-13T08:38:35.067Z,67.33
2016-09-13T08:39:35.053Z,67.43
2016-09-13T08:40:34.723Z,67.33
2016-09-13T08:41:34.708Z,67.33
2016-09-13T08:42:35.014Z,67.14
2016-09-13T08:43:34.682Z,67.53
2016-09-13T08:44:34.982Z,67.33
2016-09-13T08:45:34.970Z,67.33
2016-09-13T08:46:34.953Z,67.33
2016-09-13T08:47:34.948Z,67.33
2016-09-13T08:48:34.607Z,67.14
2016-09-13T08:49:34.907Z,67.24
2016-09-13T08:50:34.890Z,67.33
2016-09-13T08:51:34.893Z,67.24
2016-09-13T08:52:34.866Z,67.33
2016-09-13T08:53:34.540Z,67.53
2016-09-13T08:54:34.522Z,67.24
2016-09-13T08:55:34.820Z,67.33
2016-09-13T08:56:34.806Z,67.53
2016-09-13T08:57:34.486Z,67.24
2016-09-13T08:58:34.785Z,66.75
2016-09-13T08:59:34.771Z,66.56
2016-09-13T09:00:34.753Z,66.75
2016-09-13T09:01:34.740Z,66.75
2016-09-13T09:02:34.741Z,66.75
2016-09-13T09:03:34.708Z,66.75
2016-09-13T09:04:34.696Z,66.85
2016-09-13T09:05:34.364Z,66.75
2016-09-13T09:06:34.667Z,66.95
2016-09-13T09:07:34.648Z,66.66
2016-09-13T09:08:34.643Z,66.85
2016-09-13T09:09:34.623Z,66.85
2016-09-13T09:10:34.292Z,66.75
2016-09-13T09:11:34.595Z,66.85
2016-09-13T09:12:34.263Z,66.85
2016-09-13T09:13:34.561Z,67.05
2016-09-13T09:14:34.552Z,66.66
2016-09-13T09:15:34.536Z,66.66
2016-09-13T09:16:34.529Z,66.85
2016-09-13T09:17:34.509Z,66.95
2016-09-13T09:18:34.494Z,67.05
2016-09-13T09:19:34.485Z,66.85
2016-09-13T09:20:34.472Z,67.05
2016-09-13T09:21:34.449Z,67.14
2016-09-13T09:22:34.438Z,67.05
2016-09-13T09:23:34.416Z,66.85
2016-09-13T09:24:34.406Z,66.75
2016-09-13T09:25:34.075Z,67.05
2016-09-13T09:26:34.363Z,66.95
2016-09-13T09:27:34.340Z,67.05
2016-09-13T09:28:34.305Z,66.85
2016-09-13T09:29:33.990Z,66.85
2016-09-13T09:30:34.311Z,66.85
2016-09-13T09:31:34.261Z,67.14
2016-09-13T09:32:34.285Z,67.05
2016-09-13T09:33:34.254Z,67.05
2016-09-13T09:34:33.944Z,66.95
2016-09-13T09:35:34.241Z,66.95
2016-09-13T09:36:34.224Z,66.85
2016-09-13T09:37:34.224Z,67.05
2016-09-13T09:38:34.247Z,67.14
2016-09-13T09:39:33.871Z,67.05
2016-09-13T09:40:34.171Z,67.05
2016-09-13T09:41:34.149Z,66.95
2016-09-13T09:42:34.138Z,66.95
2016-09-13T09:43:34.122Z,67.24
2016-09-13T09:44:34.110Z,67.24
2016-09-13T09:45:34.101Z,66.95
2016-09-13T09:46:34.078Z,66.85
2016-09-13T09:47:34.072Z,66.95
2016-09-13T09:48:34.049Z,67.33
2016-09-13T09:49:34.041Z,67.33
2016-09-13T09:50:34.020Z,67.24
2016-09-13T09:51:34.030Z,67.05
2016-09-13T09:52:33.994Z,67.24
2016-09-13T09:53:33.986Z,67.05
2016-09-13T09:54:33.966Z,67.14
2016-09-13T09:55:33.955Z,67.14
2016-09-13T09:56:33.938Z,66.85
2016-09-13T09:57:33.923Z,67.24
2016-09-13T09:58:33.907Z,67.24
2016-09-13T09:59:33.894Z,67.14
2016-09-13T10:00:33.881Z,66.85
2016-09-13T10:01:33.865Z,67.24
2016-09-13T10:02:33.846Z,67.14
2016-09-13T10:03:33.842Z,67.24
2016-09-13T10:04:33.823Z,67.14
2016-09-13T10:05:33.811Z,67.18
2016-09-13T10:06:33.483Z,67.05
2016-09-13T10:07:33.471Z,67.14
2016-09-13T10:08:33.775Z,66.85
2016-09-13T10:09:33.759Z,67.08
2016-09-13T10:10:33.749Z,66.85
2016-09-13T10:11:33.738Z,67.14
2016-09-13T10:12:33.716Z,67.14
2016-09-13T10:13:33.707Z,67.24
2016-09-13T10:14:33.376Z,66.95
2016-09-13T10:15:33.371Z,67.05
2016-09-13T10:16:33.666Z,66.85
2016-09-13T10:17:33.651Z,67.24
2016-09-13T10:18:33.635Z,66.85
2016-09-13T10:19:33.624Z,66.75
2016-09-13T10:20:33.607Z,67.14
2016-09-13T10:21:33.598Z,67.14
2016-09-13T10:22:33.593Z,67.05
2016-09-13T10:23:33.572Z,66.98
2016-09-13T10:24:33.549Z,66.95
2016-09-13T10:25:33.535Z,67.14
2016-09-13T10:26:33.528Z,66.75
2016-09-13T10:27:33.515Z,66.98
2016-09-13T10:28:33.498Z,66.88
2016-09-13T10:29:33.481Z,66.78
2016-09-13T10:30:33.468Z,66.85
2016-09-13T10:31:33.451Z,66.85
2016-09-13T10:32:33.439Z,66.88
2016-09-13T10:33:33.420Z,67.08
2016-09-13T10:34:33.094Z,66.88
2016-09-13T10:35:33.394Z,66.66
2016-09-13T10:36:33.393Z,66.88
2016-09-13T10:37:33.367Z,66.69
2016-09-13T10:38:33.348Z,66.88
2016-09-13T10:39:33.342Z,66.69
2016-09-13T10:40:33.334Z,66.88
2016-09-13T10:41:32.992Z,66.66
2016-09-13T10:42:33.299Z,66.6
2016-09-13T10:43:33.279Z,66.69
2016-09-13T10:44:32.949Z,66.69
2016-09-13T10:45:33.271Z,66.69
2016-09-13T10:46:33.241Z,66.69
2016-09-13T10:47:33.222Z,66.69
2016-09-13T10:48:33.213Z,66.69
2016-09-13T10:49:33.191Z,66.69
2016-09-13T10:50:33.196Z,66.98
2016-09-13T10:51:33.172Z,66.98
2016-09-13T10:52:33.151Z,66.69
2016-09-13T10:53:33.134Z,66.98
2016-09-13T10:54:33.124Z,66.98
2016-09-13T10:55:33.108Z,66.69
2016-09-13T10:56:33.092Z,66.98
2016-09-13T10:57:33.085Z,66.78
2016-09-13T10:58:33.068Z,66.88
2016-09-13T10:59:33.055Z,66.98
2016-09-13T11:00:33.039Z,66.69
2016-09-13T11:01:33.022Z,66.98
2016-09-13T11:02:33.009Z,66.69
2016-09-13T11:03:32.681Z,66.6
2016-09-13T11:04:32.985Z,66.6
2016-09-13T11:05:32.969Z,66.5
2016-09-13T11:06:32.960Z,66.69
2016-09-13T11:07:32.943Z,66.69
2016-09-13T11:08:32.921Z,66.69
2016-09-13T11:09:32.599Z,66.69
2016-09-13T11:10:32.896Z,66.69
2016-09-13T11:11:32.884Z,66.78
2016-09-13T11:12:32.862Z,66.69
2016-09-13T11:13:32.857Z,66.88
2016-09-13T11:14:32.840Z,66.98
2016-09-13T11:15:32.838Z,66.69
2016-09-13T11:16:32.805Z,66.88
2016-09-13T11:17:32.489Z,66.69
2016-09-13T11:18:32.464Z,66.69
2016-09-13T11:19:32.773Z,66.98
2016-09-13T11:20:32.772Z,66.88
2016-09-13T11:21:32.736Z,66.88
2016-09-13T11:22:32.726Z,66.88
2016-09-13T11:23:32.715Z,66.98
2016-09-13T11:24:32.700Z,66.88
2016-09-13T11:25:32.678Z,66.6
2016-09-13T11:26:32.669Z,66.6
2016-09-13T11:27:32.655Z,66.6
2016-09-13T11:28:32.640Z,66.69
2016-09-13T11:29:32.633Z,66.69
2016-09-13T11:30:32.613Z,66.6
2016-09-13T11:31:32.282Z,66.78
2016-09-13T11:32:32.270Z,66.6
2016-09-13T11:33:32.256Z,66.78
2016-09-13T11:34:32.559Z,66.75
2016-09-13T11:35:32.539Z,66.78
2016-09-13T11:36:32.525Z,66.78
2016-09-13T11:37:32.196Z,66.78
2016-09-13T11:38:32.500Z,66.78
2016-09-13T11:39:32.484Z,66.78
2016-09-13T11:40:32.467Z,66.78
2016-09-13T11:41:32.455Z,66.78
2016-09-13T11:42:32.441Z,66.6
2016-09-13T11:43:32.432Z,66.6
2016-09-13T11:44:32.409Z,66.78
2016-09-13T11:45:32.081Z,67.08
2016-09-13T11:46:32.066Z,66.88
2016-09-13T11:47:32.052Z,66.69
2016-09-13T11:48:32.353Z,66.88
2016-09-13T11:49:32.028Z,66.69
2016-09-13T11:50:32.321Z,66.88
2016-09-13T11:51:32.317Z,67.27
2016-09-13T11:52:32.301Z,66.78
2016-09-13T11:53:31.969Z,67.18
2016-09-13T11:54:32.276Z,67.08
2016-09-13T11:55:32.259Z,66.88
2016-09-13T11:56:32.242Z,67.37
2016-09-13T11:57:31.912Z,66.98
2016-09-13T11:58:32.210Z,66.78
2016-09-13T11:59:32.195Z,67.18
2016-09-13T12:00:32.184Z,66.88
2016-09-13T12:01:32.168Z,66.88
2016-09-13T12:02:32.147Z,66.88
2016-09-13T12:03:31.824Z,66.69
2016-09-13T12:04:32.125Z,66.88
2016-09-13T12:05:31.795Z,66.88
2016-09-13T12:06:31.784Z,66.98
2016-09-13T12:07:31.768Z,66.69
2016-09-13T12:08:32.065Z,67.18
2016-09-13T12:09:32.054Z,66.88
2016-09-13T12:10:32.040Z,66.78
2016-09-13T12:11:32.025Z,67.08
2016-09-13T12:12:32.009Z,66.98
2016-09-13T12:13:31.993Z,66.69
2016-09-13T12:14:31.978Z,66.78
2016-09-13T12:15:31.967Z,67.18
2016-09-13T12:16:31.637Z,66.88
2016-09-13T12:17:31.934Z,66.78
2016-09-13T12:18:31.602Z,66.88
2016-09-13T12:19:31.593Z,66.88
2016-09-13T12:20:31.892Z,66.69
2016-09-13T12:21:31.886Z,66.69
2016-09-13T12:22:31.863Z,66.78
2016-09-13T12:23:31.858Z,66.69
2016-09-13T12:24:31.837Z,66.6
2016-09-13T12:25:31.515Z,66.88
2016-09-13T12:26:31.807Z,66.4
2016-09-13T12:27:31.794Z,66.88
2016-09-13T12:28:31.466Z,66.69
2016-09-13T12:29:31.773Z,66.78
2016-09-13T12:30:31.752Z,66.78
2016-09-13T12:31:31.735Z,66.6
2016-09-13T12:32:31.722Z,66.69
2016-09-13T12:33:31.712Z,66.69
2016-09-13T12:34:31.691Z,66.3
2016-09-13T12:35:31.683Z,66.4
2016-09-13T12:36:31.667Z,66.69
2016-09-13T12:37:31.338Z,66.3
2016-09-13T12:38:31.647Z,66.4
2016-09-13T12:39:31.305Z,66.4
2016-09-13T12:40:31.616Z,66.6
2016-09-13T12:41:31.594Z,66.5
2016-09-13T12:42:31.581Z,66.3
2016-09-13T12:43:31.250Z,66.24
2016-09-13T12:44:31.242Z,66.11
2016-09-13T12:45:31.231Z,66.11
2016-09-13T12:46:31.209Z,66.2
2016-09-13T12:47:31.514Z,66.4
2016-09-13T12:48:31.180Z,66.02
2016-09-13T12:49:31.478Z,66.3
2016-09-13T12:50:31.151Z,66.2
2016-09-13T12:51:31.465Z,66.2
2016-09-13T12:52:31.440Z,66.2
2016-09-13T12:53:31.422Z,66.3
2016-09-13T12:54:31.410Z,66.2
2016-09-13T12:55:31.400Z,66.69
2016-09-13T12:56:31.067Z,66.4
2016-09-13T12:57:31.378Z,66.3
2016-09-13T12:58:31.356Z,66.5
2016-09-13T12:59:31.341Z,66.2
2016-09-13T13:00:31.326Z,65.82
2016-09-13T13:01:31.315Z,65.82
2016-09-13T13:02:31.291Z,65.92
2016-09-13T13:03:31.277Z,65.85
2016-09-13T13:04:31.269Z,66.2
2016-09-13T13:05:31.252Z,66.4
2016-09-13T13:06:31.242Z,66.11
2016-09-13T13:07:30.910Z,66.14
2016-09-13T13:08:31.207Z,66.53
2016-09-13T13:09:31.207Z,66.3
2016-09-13T13:10:31.185Z,66.6
2016-09-13T13:11:31.174Z,66.3
2016-09-13T13:12:31.157Z,66.4
2016-09-13T13:13:30.825Z,65.92
2016-09-13T13:14:31.131Z,65.85